Bookmark and Share
Track history (hours):
 

Eleonora E

Last reported at 2013-Oct-24 02:15 UTC. Time now 2014-Apr-20 00:53 UTC.
Position N 41°06' E 001°15'.
Warning: this ship's position is months out of date.

Length 50 m; draft 5.2 m.

Type: Sailing vessel. MMSI: 235008680.

NotesDate/timePositionNaut miles runAvg speedWind from/ knotsBaromVisibWave heightAir tempDewpointWater temp
2013-Oct-24 02:15N 41°06' E 001°15'62 1.6
2013-Oct-22 12:29N 41°19' E 002°35'9 9.9
2013-Oct-22 11:34N 41°21' E 002°47'9 9.1
2013-Oct-22 10:33N 41°22' E 002°59'1010.3
2013-Oct-22 09:33N 41°21' E 003°13'10 9.5
2013-Oct-22 08:34N 41°23' E 003°25'1010.0
2013-Oct-22 07:33N 41°26' E 003°38'9 9.3
2013-Oct-22 06:33N 41°30' E 003°50'1010.0
2013-Oct-22 05:33N 41°33' E 004°02'1311.1
2013-Oct-22 04:21N 41°37' E 004°19'810.3
2013-Oct-22 03:33N 41°40' E 004°30'1411.0
2013-Oct-22 02:15N 41°43' E 004°48'7 9.9
2013-Oct-22 01:32N 41°46' E 004°57'1010.4
2013-Oct-22 00:33N 41°49' E 005°10'77 9.5
2013-Oct-21 16:28N 42°41' E 006°27'1111.5
2013-Oct-21 15:33N 42°51' E 006°33'1111.2
2013-Oct-21 14:33N 43°01' E 006°38'7 7.1
2013-Oct-21 13:33N 43°08' E 006°40'10 9.9
2013-Oct-21 12:34N 43°17' E 006°46'1010.1
2013-Oct-21 11:33N 43°25' E 006°54'9 9.0
2013-Oct-21 10:34N 43°33' E 007°01'0 0.0
2013-Oct-21 09:33N 43°33' E 007°01'0 0.0
2013-Oct-21 08:34N 43°33' E 007°01'0 0.0
2013-Oct-21 07:34N 43°33' E 007°01'0 0.0
2013-Oct-21 06:33N 43°33' E 007°01'0 0.0
2013-Oct-21 05:34N 43°33' E 007°01'4 0.2
2013-Oct-20 10:33N 43°30' E 007°05'1111.0
2013-Oct-20 09:33N 43°37' E 007°16'9 1.8
2013-Oct-20 04:33N 43°43' E 007°25'0 0.0
2013-Oct-20 03:34N 43°43' E 007°25'0 0.0
2013-Oct-20 02:33N 43°43' E 007°25'0 0.0
2013-Oct-20 01:34N 43°43' E 007°25'0 0.0
2013-Oct-20 00:34N 43°43' E 007°25'0 0.0
2013-Oct-19 23:34N 43°43' E 007°25'0 0.0
2013-Oct-19 22:34N 43°43' E 007°25'0 0.0
2013-Oct-19 21:33N 43°43' E 007°25'0 0.0
2013-Oct-19 20:34N 43°43' E 007°25'0 0.0
2013-Oct-19 19:33N 43°43' E 007°25'0 0.0
2013-Oct-19 18:33N 43°43' E 007°25'4 3.8
2013-Oct-19 17:32N 43°41' E 007°20'4 3.9
2013-Oct-19 16:33N 43°38' E 007°18'9 9.0
2013-Oct-19 15:33N 43°32' E 007°08'4 4.0
2013-Oct-19 14:33N 43°31' E 007°03'0 0.0
2013-Oct-19 13:33N 43°31' E 007°03'4 4.2
2013-Oct-19 12:34N 43°30' E 007°09'5 5.0
2013-Oct-19 11:33N 43°33' E 007°14'7 7.0
2013-Oct-19 10:33N 43°39' E 007°20'3 2.8
2013-Oct-19 09:33N 43°41' E 007°21'0 0.1
2013-Oct-19 08:33N 43°41' E 007°20'0 0.0
2013-Oct-19 07:31N 43°41' E 007°21'0 0.0
2013-Oct-19 06:33N 43°41' E 007°21'0 0.0
2013-Oct-19 05:32N 43°41' E 007°21'0 0.0
2013-Oct-19 04:33N 43°41' E 007°21'0 0.0
2013-Oct-19 03:26N 43°41' E 007°21'0 0.0
2013-Oct-19 02:34N 43°41' E 007°21'0 0.0
2013-Oct-19 01:33N 43°41' E 007°21'0 0.0
2013-Oct-19 00:33N 43°41' E 007°21'0 0.0
2013-Oct-18 23:33N 43°41' E 007°21'0 0.0
2013-Oct-18 22:31N 43°41' E 007°21'0 0.0
2013-Oct-18 21:32N 43°41' E 007°21'0 0.0
2013-Oct-18 20:33N 43°41' E 007°20'0 0.0
2013-Oct-18 19:33N 43°41' E 007°20'0 0.0
2013-Oct-18 18:33N 43°41' E 007°20'0 0.0
2013-Oct-18 17:33N 43°41' E 007°20'0 0.0
2013-Oct-18 16:32N 43°41' E 007°20'1 1.2
2013-Oct-18 15:33N 43°40' E 007°20'8 8.2
2013-Oct-18 14:34N 43°36' E 007°10'2 1.6
2013-Oct-18 13:34N 43°36' E 007°08'0 0.0
2013-Oct-18 12:34N 43°36' E 007°08'0 0.0
2013-Oct-18 11:33N 43°36' E 007°08'0 0.0
2013-Oct-18 10:34N 43°36' E 007°08'3 3.4
2013-Oct-18 09:33N 43°32' E 007°08'5 5.3
2013-Oct-18 08:33N 43°33' E 007°01'0 0.0
2013-Oct-18 07:34N 43°33' E 007°01'0 0.0
2013-Oct-18 06:34N 43°33' E 007°01'0 0.0
2013-Oct-18 05:34N 43°33' E 007°01'0 0.0
2013-Oct-18 04:33N 43°33' E 007°01'0 0.0
2013-Oct-18 03:33N 43°33' E 007°01'0 0.0
2013-Oct-18 02:34N 43°33' E 007°01'0 0.0
2013-Oct-18 01:33N 43°33' E 007°01'0 0.0
2013-Oct-18 00:34N 43°33' E 007°01'0 0.0
2013-Oct-17 23:33N 43°33' E 007°01'0 0.0
2013-Oct-17 22:34N 43°33' E 007°01'0 0.0
2013-Oct-17 21:33N 43°33' E 007°01'0 0.0
2013-Oct-17 20:34N 43°33' E 007°01'0 0.0
2013-Oct-17 19:34N 43°33' E 007°01'0 0.0
2013-Oct-17 18:34N 43°33' E 007°01'0 0.0
2013-Oct-17 17:33N 43°33' E 007°01'0 0.0
2013-Oct-17 16:34N 43°33' E 007°01'0 0.0
2013-Oct-17 15:32N 43°33' E 007°01'0 0.0
2013-Oct-17 14:34N 43°33' E 007°01'0 0.0
2013-Oct-17 13:34N 43°33' E 007°01'0 0.0
2013-Oct-17 12:33N 43°33' E 007°01'0 0.0
2013-Oct-17 11:33N 43°33' E 007°01'0 0.0
2013-Oct-17 10:34N 43°33' E 007°01'0 0.0
2013-Oct-17 09:34N 43°33' E 007°01'0 0.0
2013-Oct-17 08:33N 43°33' E 007°01'0 0.0
2013-Oct-17 07:33N 43°33' E 007°01'0 0.0
2013-Oct-17 06:34N 43°33' E 007°01'0 0.0
2013-Oct-17 05:33N 43°33' E 007°01'0 0.0
2013-Oct-17 04:33N 43°33' E 007°01'0 0.0
2013-Oct-17 03:34N 43°33' E 007°01'0 0.0
2013-Oct-17 02:34N 43°33' E 007°01'0 0.0
2013-Oct-17 01:33N 43°33' E 007°01'0 0.0
2013-Oct-17 00:33N 43°33' E 007°01'524524.4
2013-Oct-16 23:33N 52°17' E 007°01'524525.0
2013-Oct-16 22:33N 43°33' E 007°01'0 0.0
2013-Oct-16 21:33N 43°33' E 007°01'0 0.0
2013-Oct-16 20:33N 43°33' E 007°01'0 0.0
2013-Oct-16 19:33N 43°33' E 007°01'0 0.0
2013-Oct-16 18:34N 43°33' E 007°01'0 0.0
2013-Oct-16 17:34N 43°33' E 007°01'0 0.0
2013-Oct-16 16:33N 43°33' E 007°01'0 0.0
2013-Oct-16 15:33N 43°33' E 007°01'0 0.0
2013-Oct-16 14:34N 43°33' E 007°01'0 0.0
2013-Oct-16 13:33N 43°33' E 007°01'0 0.0
2013-Oct-16 12:33N 43°33' E 007°01'0 0.0
2013-Oct-16 11:34N 43°33' E 007°01'0 0.0
2013-Oct-16 10:33N 43°33' E 007°01'0 0.0
2013-Oct-16 09:33N 43°33' E 007°01'0 0.0
2013-Oct-16 08:33N 43°33' E 007°01'0 0.0
2013-Oct-16 07:34N 43°33' E 007°01'0 0.0
2013-Oct-16 06:34N 43°33' E 007°01'0 0.0
2013-Oct-16 05:34N 43°33' E 007°01'0 0.0
2013-Oct-16 04:34N 43°33' E 007°01'0 0.0
2013-Oct-16 03:34N 43°33' E 007°01'0 0.0
2013-Oct-16 02:33N 43°33' E 007°01'0 0.0
2013-Oct-16 01:33N 43°33' E 007°01'0 0.0
2013-Oct-16 00:33N 43°33' E 007°01'0 0.0
2013-Oct-15 23:33N 43°33' E 007°01'0 0.0
2013-Oct-15 22:03N 43°33' E 007°01'0 0.0
2013-Oct-15 21:33N 43°33' E 007°01'0 0.0
2013-Oct-15 20:34N 43°33' E 007°01'0 0.0
2013-Oct-15 19:33N 43°33' E 007°01'0 0.0
2013-Oct-15 18:33N 43°33' E 007°01'0 0.0
2013-Oct-15 17:34N 43°33' E 007°01'0 0.0
2013-Oct-15 16:34N 43°33' E 007°01'0 0.0
2013-Oct-15 15:34N 43°33' E 007°01'0 0.0
2013-Oct-15 14:33N 43°33' E 007°01'0 0.0
2013-Oct-15 13:33N 43°33' E 007°01'0 0.0
2013-Oct-15 12:34N 43°33' E 007°01'0 0.0
2013-Oct-15 11:33N 43°33' E 007°01'0 0.0
2013-Oct-15 10:33N 43°33' E 007°01'0 0.0
2013-Oct-15 09:33N 43°33' E 007°01'0 0.0
2013-Oct-15 08:34N 43°33' E 007°01'0 0.0
2013-Oct-15 07:34N 43°33' E 007°01'0 0.0
2013-Oct-15 06:33N 43°33' E 007°01'524521.4
2013-Oct-15 05:33N 52°17' E 007°01'52421.0
2013-Oct-14 04:33N 43°33' E 007°01'0 0.0
2013-Oct-14 03:33N 43°33' E 007°01'0 0.0
2013-Oct-14 02:34N 43°33' E 007°01'  

Dump ship's entire track history

sailing weather and tide predictions

Eleonora E — MEDD4 — position and weather